Time;durP1;ratioP1;P1;durP2;ratioP2;P2;SDS_P1;SDS_P2;PMS_P1;PMS_P2;Temp;Humidity;BMP_temperature;BMP_pressure;BME280_temperature;BME280_humidity;BME280_pressure;Samples;Min_cycle;Max_cycle;Signal;HPM_P1;HPM_P2
2023/01/07 00:01:42;;;;;;;3.10;2.30;;;;;;;7.61;50.11;101363.27;106360;1298;21965;-64
2023/01/07 00:04:11;;;;;;;4.50;2.80;;;;;;;7.64;49.89;101353.88;106412;1298;21996;-65
2023/01/07 00:06:40;;;;;;;4.40;2.80;;;;;;;7.60;49.92;101350.85;106436;1298;23690;-67
2023/01/07 00:09:07;;;;;;;5.10;3.10;;;;;;;7.56;49.85;101357.78;106338;1299;22005;-61
2023/01/07 00:11:35;;;;;;;4.40;2.90;;;;;;;7.57;50.11;101362.86;106158;1299;305291;-67
2023/01/07 00:14:03;;;;;;;4.40;2.80;;;;;;;7.61;50.13;101363.45;105712;1298;1002891;-62
2023/01/07 00:16:30;;;;;;;6.10;2.90;;;;;;;7.62;49.88;101366.80;106477;1299;21963;-61
2023/01/07 00:19:16;;;;;;;6.10;3.20;;;;;;;7.63;49.85;101374.30;106335;1299;22037;-67
2023/01/07 00:21:42;;;;;;;7.00;3.20;;;;;;;7.63;49.77;101373.77;106390;1299;21956;-67
2023/01/07 00:24:08;;;;;;;7.40;3.50;;;;;;;7.63;49.66;101372.73;106374;1299;21954;-63
2023/01/07 00:26:35;;;;;;;6.50;2.90;;;;;;;7.63;49.60;101377.45;106413;1299;21967;-66
2023/01/07 00:29:02;;;;;;;6.70;2.70;;;;;;;7.63;49.55;101381.30;106437;1298;21965;-61
2023/01/07 00:31:30;;;;;;;4.00;2.30;;;;;;;7.63;49.62;101376.59;106420;1298;23071;-61
2023/01/07 00:36:23;;;;;;;4.40;3.00;;;;;;;7.63;49.35;101370.29;105655;1297;1002506;-64
2023/01/07 00:38:55;;;;;;;4.60;2.80;;;;;;;7.62;49.54;101368.89;106425;1299;21963;-59
2023/01/07 00:41:21;;;;;;;3.70;2.40;;;;;;;7.59;49.53;101363.23;105644;1299;1003058;-60
2023/01/07 00:43:47;;;;;;;4.40;2.60;;;;;;;7.56;49.55;101362.31;106408;1299;21957;-65
2023/01/07 00:46:13;;;;;;;4.60;2.10;;;;;;;7.53;49.53;101364.19;105634;1299;1002570;-65
2023/01/07 00:48:39;;;;;;;4.90;2.70;;;;;;;7.52;49.51;101365.55;106298;1299;21999;-65
2023/01/07 00:51:05;;;;;;;3.80;2.50;;;;;;;7.49;49.42;101365.19;106400;1295;21967;-64
2023/01/07 00:53:30;;;;;;;5.20;2.60;;;;;;;7.46;49.53;101368.27;106349;1299;21961;-61
2023/01/07 00:55:56;;;;;;;5.00;2.60;;;;;;;7.43;49.40;101371.20;106388;1299;21966;-60
2023/01/07 00:58:26;;;;;;;4.20;2.50;;;;;;;7.42;49.67;101372.92;106348;1299;23115;-59
2023/01/07 01:01:00;;;;;;;5.10;2.50;;;;;;;7.40;49.51;101369.91;106453;1298;21976;-59
2023/01/07 01:03:26;;;;;;;4.00;2.40;;;;;;;7.33;49.18;101365.08;106393;1299;21958;-65
2023/01/07 01:05:52;;;;;;;3.50;2.00;;;;;;;7.28;49.46;101361.87;105641;1299;1002249;-58
2023/01/07 01:08:20;;;;;;;4.70;2.60;;;;;;;7.26;49.33;101361.31;106415;1299;21954;-65
2023/01/07 01:10:46;;;;;;;4.60;2.60;;;;;;;7.23;49.37;101361.42;106403;1299;22400;-62
2023/01/07 01:13:12;;;;;;;5.70;2.60;;;;;;;7.21;49.42;101362.95;106385;1299;21963;-59
2023/01/07 01:15:45;;;;;;;5.80;2.50;;;;;;;7.16;49.43;101365.67;106417;1299;21958;-64
2023/01/07 01:18:12;;;;;;;3.40;2.00;;;;;;;7.08;49.20;101362.21;106407;1299;21950;-64
2023/01/07 01:20:38;;;;;;;4.30;2.10;;;;;;;7.01;49.42;101357.20;106406;1299;21975;-59
2023/01/07 01:23:04;;;;;;;4.10;2.40;;;;;;;6.96;49.46;101350.32;106524;1298;22003;-60
2023/01/07 01:25:31;;;;;;;6.00;2.70;;;;;;;6.96;49.60;101346.80;106444;1299;21956;-64
2023/01/07 01:27:57;;;;;;;4.70;2.80;;;;;;;6.97;49.74;101343.54;105640;1299;1002448;-65
2023/01/07 01:30:23;;;;;;;5.10;2.70;;;;;;;7.00;49.99;101344.28;105643;1299;1002438;-64
2023/01/07 01:32:48;;;;;;;3.60;2.30;;;;;;;7.02;49.92;101342.91;106361;1299;22000;-59
2023/01/07 01:35:14;;;;;;;4.50;2.50;;;;;;;7.02;50.02;101342.04;106421;1298;21998;-65
2023/01/07 01:37:40;;;;;;;3.50;2.00;;;;;;;7.00;49.67;101342.00;106384;1299;21964;-59
2023/01/07 01:40:06;;;;;;;3.40;2.00;;;;;;;7.00;49.96;101343.58;106392;1297;21962;-59
2023/01/07 01:42:35;;;;;;;3.90;2.30;;;;;;;7.02;49.93;101344.83;106438;1299;21962;-64
2023/01/07 01:45:00;;;;;;;4.20;2.30;;;;;;;6.97;49.70;101345.63;106438;1299;21954;-63
2023/01/07 01:47:32;;;;;;;4.60;2.80;;;;;;;6.91;49.76;101351.96;106386;1297;22049;-65
2023/01/07 01:50:35;;;;;;;4.80;3.00;;;;;;;6.83;49.64;101354.96;105648;1299;1002869;-59
2023/01/07 01:53:06;;;;;;;4.40;2.30;;;;;;;6.70;49.70;101352.95;105430;1299;1002633;-65
2023/01/07 01:55:35;;;;;;;4.20;2.30;;;;;;;6.62;49.55;101347.58;106696;1299;22049;-59
2023/01/07 01:58:04;;;;;;;4.40;2.20;;;;;;;6.58;49.67;101356.92;106401;1299;21996;-58
2023/01/07 02:00:29;;;;;;;4.50;2.60;;;;;;;6.54;49.78;101367.15;106465;1299;21962;-65
2023/01/07 02:02:56;;;;;;;3.70;2.30;;;;;;;6.54;49.91;101368.37;106364;1299;22003;-58
2023/01/07 02:05:27;;;;;;;5.80;3.00;;;;;;;6.56;49.95;101368.91;105753;1299;1002273;-59
2023/01/07 02:07:53;;;;;;;4.60;2.60;;;;;;;6.55;49.82;101371.86;106410;1299;21991;-65
2023/01/07 02:10:20;;;;;;;5.00;2.60;;;;;;;6.54;49.81;101374.11;106396;1295;21965;-65
2023/01/07 02:13:10;;;;;;;4.10;2.50;;;;;;;6.52;49.62;101380.70;106396;1299;21991;-64
2023/01/07 02:15:44;;;;;;;7.00;2.90;;;;;;;6.49;49.29;101380.80;106436;1299;21956;-59
2023/01/07 02:18:22;;;;;;;4.20;2.60;;;;;;;6.43;49.45;101381.37;106389;1299;21960;-60
2023/01/07 02:21:03;;;;;;;4.30;2.20;;;;;;;6.41;49.54;101376.10;106433;1299;23157;-60
2023/01/07 02:24:07;;;;;;;4.10;2.50;;;;;;;6.36;49.20;101373.58;106431;1299;22047;-59
2023/01/07 02:26:58;;;;;;;5.20;2.40;;;;;;;6.30;49.31;101368.91;106566;1299;22067;-58
2023/01/07 02:29:39;;;;;;;5.70;2.70;;;;;;;6.21;49.63;101367.16;105634;1299;1002587;-59
2023/01/07 02:32:17;;;;;;;5.90;2.80;;;;;;;6.23;49.44;101369.80;106431;1294;21967;-59
2023/01/07 02:35:13;;;;;;;4.60;2.70;;;;;;;6.21;49.48;101373.74;106422;1298;21964;-65
2023/01/07 02:37:58;;;;;;;7.80;3.40;;;;;;;5.91;49.49;101375.52;106434;1299;22045;-59
2023/01/07 02:40:30;;;;;;;5.10;2.90;;;;;;;5.99;49.30;101373.09;106423;1299;21964;-60
2023/01/07 02:43:08;;;;;;;5.50;3.20;;;;;;;5.98;49.17;101368.52;106292;1299;21976;-59
2023/01/07 02:45:41;;;;;;;5.20;3.40;;;;;;;5.93;49.40;101366.34;106419;1297;21978;-64
2023/01/07 02:48:08;;;;;;;7.50;2.70;;;;;;;5.94;49.70;101369.14;106356;1299;23818;-64
2023/01/07 02:50:34;;;;;;;6.50;2.70;;;;;;;5.98;49.43;101374.44;106410;1299;22076;-59
2023/01/07 02:53:00;;;;;;;5.50;3.10;;;;;;;5.98;49.43;101370.98;106377;1299;21955;-65
2023/01/07 02:56:05;;;;;;;5.20;2.90;;;;;;;5.96;49.51;101371.63;106400;1297;22081;-65
2023/01/07 02:58:43;;;;;;;7.10;2.90;;;;;;;5.99;49.54;101369.95;106464;1300;21964;-65
2023/01/07 03:01:28;;;;;;;5.10;2.60;;;;;;;5.96;49.69;101373.04;106279;1295;21961;-65
2023/01/07 03:04:01;;;;;;;5.30;2.80;;;;;;;5.98;49.93;101369.23;106391;1300;21948;-59
2023/01/07 03:06:36;;;;;;;4.70;3.00;;;;;;;5.99;49.79;101367.16;105603;1293;1002436;-59
2023/01/07 03:09:31;;;;;;;5.60;2.90;;;;;;;5.99;49.89;101373.59;105672;1300;1002813;-59
2023/01/07 03:12:04;;;;;;;5.50;3.30;;;;;;;6.01;49.75;101375.74;106356;1297;21963;-59
2023/01/07 03:14:49;;;;;;;5.10;2.90;;;;;;;6.03;49.54;101382.07;106310;1300;21964;-59
2023/01/07 03:17:18;;;;;;;4.80;2.80;;;;;;;6.05;49.69;101386.48;106549;1295;21956;-65
2023/01/07 03:19:46;;;;;;;5.80;3.10;;;;;;;6.05;49.82;101389.28;106532;1300;21960;-59
2023/01/07 03:22:12;;;;;;;6.10;3.40;;;;;;;6.04;49.62;101392.75;106368;1300;21948;-65
2023/01/07 03:24:38;;;;;;;5.40;3.20;;;;;;;6.02;49.84;101389.91;106283;1298;21963;-61
2023/01/07 03:27:04;;;;;;;4.70;3.00;;;;;;;6.01;49.66;101385.36;106187;1302;21999;-60
2023/01/07 03:29:31;;;;;;;4.60;3.00;;;;;;;6.04;49.60;101384.56;106281;1300;21947;-61
2023/01/07 03:32:13;;;;;;;5.70;3.40;;;;;;;6.07;49.37;101387.92;105613;1300;1002753;-65
2023/01/07 03:34:39;;;;;;;6.90;3.50;;;;;;;6.03;49.78;101392.21;106352;1300;21958;-59
2023/01/07 03:37:08;;;;;;;6.80;3.70;;;;;;;5.98;49.56;101394.14;106337;1300;21957;-65
2023/01/07 03:39:34;;;;;;;6.00;3.20;;;;;;;5.94;49.49;101393.71;106363;1300;21957;-60
2023/01/07 03:44:44;;;;;;;6.50;4.00;;;;;;;5.90;49.84;101398.52;106307;1300;21982;-65
2023/01/07 03:47:10;;;;;;;5.70;3.40;;;;;;;5.88;49.45;101406.45;106280;1300;22058;-60
2023/01/07 03:49:36;;;;;;;5.10;3.10;;;;;;;5.88;49.71;101407.33;106475;1300;21956;-65
2023/01/07 03:52:02;;;;;;;7.90;4.20;;;;;;;5.92;49.31;101402.90;105746;1298;1002181;-65
2023/01/07 03:54:28;;;;;;;9.20;4.00;;;;;;;5.94;49.55;101403.13;106549;1298;21958;-64
2023/01/07 03:56:54;;;;;;;7.80;3.80;;;;;;;5.91;49.63;101401.64;106477;1299;21951;-66
2023/01/07 03:59:20;;;;;;;5.80;3.50;;;;;;;5.89;49.41;101396.55;106559;1296;21937;-64
2023/01/07 04:01:45;;;;;;;5.70;3.50;;;;;;;5.87;49.53;101398.43;106546;1299;21962;-60
2023/01/07 04:04:11;;;;;;;5.70;3.80;;;;;;;5.84;49.35;101395.38;106524;1299;21960;-59
2023/01/07 04:06:37;;;;;;;6.80;3.90;;;;;;;5.78;49.45;101396.46;106529;1295;21957;-60
2023/01/07 04:09:03;;;;;;;6.20;3.60;;;;;;;5.72;49.38;101398.61;106538;1295;21996;-64
2023/01/07 04:11:28;;;;;;;6.30;3.70;;;;;;;5.62;49.02;101397.31;106593;1299;21963;-64
2023/01/07 04:13:56;;;;;;;6.30;3.60;;;;;;;5.53;49.37;101396.58;106598;1299;21994;-60
2023/01/07 04:16:21;;;;;;;7.50;3.80;;;;;;;5.47;49.41;101396.44;106656;1299;21948;-64
2023/01/07 04:18:47;;;;;;;9.50;3.30;;;;;;;5.44;49.40;101395.64;106552;1299;21951;-59
2023/01/07 04:21:13;;;;;;;6.20;3.60;;;;;;;5.40;49.35;101399.38;106567;1299;21955;-64
2023/01/07 04:23:38;;;;;;;5.90;3.70;;;;;;;5.40;49.42;101402.85;106528;1299;21916;-65
2023/01/07 04:26:04;;;;;;;6.30;4.20;;;;;;;5.41;49.54;101403.91;106591;1298;21955;-59
2023/01/07 04:28:30;;;;;;;6.80;3.90;;;;;;;5.43;49.73;101406.23;106553;1296;21961;-59
2023/01/07 04:30:57;;;;;;;9.50;4.50;;;;;;;5.44;49.59;101410.27;106454;1299;22071;-60
2023/01/07 04:33:25;;;;;;;6.80;3.60;;;;;;;5.42;49.65;101407.09;106599;1299;22106;-59
2023/01/07 04:35:50;;;;;;;6.10;2.90;;;;;;;5.42;49.80;101405.69;106609;1289;21962;-64
2023/01/07 04:38:16;;;;;;;14.00;3.70;;;;;;;5.40;49.76;101400.59;105881;1299;1002555;-61
2023/01/07 04:40:44;;;;;;;7.40;2.90;;;;;;;5.50;49.68;101402.94;106602;1288;21982;-64
2023/01/07 04:43:09;;;;;;;4.80;3.00;;;;;;;5.59;49.45;101400.53;106540;1299;21966;-64
2023/01/07 04:45:35;;;;;;;6.00;3.20;;;;;;;5.57;49.21;101403.98;106481;1299;21959;-64
2023/01/07 04:48:01;;;;;;;5.50;3.50;;;;;;;5.55;49.13;101406.20;106485;1299;21959;-64
2023/01/07 04:50:26;;;;;;;6.90;4.30;;;;;;;5.55;49.36;101411.59;106500;1299;21973;-64
2023/01/07 04:52:52;;;;;;;7.80;3.80;;;;;;;5.62;48.99;101412.63;106510;1299;21971;-64
2023/01/07 04:55:19;;;;;;;7.60;4.10;;;;;;;5.64;48.99;101412.33;106458;1297;22008;-59
2023/01/07 04:57:46;;;;;;;5.50;3.70;;;;;;;5.65;49.08;101419.15;106414;1297;22069;-64
2023/01/07 05:00:13;;;;;;;7.00;3.90;;;;;;;5.66;48.87;101423.35;106495;1299;21955;-60
2023/01/07 05:02:39;;;;;;;7.90;3.70;;;;;;;5.66;48.89;101430.33;106593;1299;21957;-64
2023/01/07 05:05:06;;;;;;;9.80;3.20;;;;;;;5.69;49.35;101433.89;106553;1299;21958;-64
2023/01/07 05:07:31;;;;;;;6.10;3.30;;;;;;;5.74;49.28;101434.18;106500;1299;22134;-59
2023/01/07 05:09:57;;;;;;;8.50;4.10;;;;;;;5.81;49.53;101437.46;106464;1299;24825;-64
2023/01/07 05:12:22;;;;;;;11.40;4.50;;;;;;;5.88;49.65;101437.65;106419;1298;21964;-65
2023/01/07 05:14:48;;;;;;;10.90;4.10;;;;;;;6.03;49.87;101438.54;106457;1295;21959;-59
2023/01/07 05:17:13;;;;;;;10.00;4.40;;;;;;;6.20;49.91;101439.61;106460;1299;21957;-66
2023/01/07 05:19:40;;;;;;;9.40;3.60;;;;;;;6.29;49.95;101442.10;106444;1298;21955;-66
2023/01/07 05:22:05;;;;;;;11.20;4.70;;;;;;;6.38;49.86;101441.60;106456;1299;21951;-58
2023/01/07 05:24:31;;;;;;;7.10;3.80;;;;;;;6.50;50.01;101433.14;106429;1299;21964;-60
2023/01/07 05:26:57;;;;;;;10.30;4.00;;;;;;;6.64;49.95;101428.72;106470;1298;21977;-67
2023/01/07 05:29:23;;;;;;;16.50;5.50;;;;;;;6.76;49.97;101434.20;106409;1299;22018;-66
2023/01/07 05:31:48;;;;;;;10.00;4.90;;;;;;;6.95;50.36;101433.89;106416;1299;22001;-66
2023/01/07 05:34:14;;;;;;;7.60;5.10;;;;;;;7.14;50.35;101433.88;106504;1297;21997;-65
2023/01/07 05:36:40;;;;;;;7.80;4.30;;;;;;;7.25;50.40;101431.64;106461;1299;21972;-58
2023/01/07 05:39:05;;;;;;;12.60;5.50;;;;;;;7.38;50.22;101429.25;106428;1299;22109;-66
2023/01/07 05:41:32;;;;;;;23.80;10.70;;;;;;;7.45;50.11;101435.13;106423;1298;21962;-65
2023/01/07 05:43:58;;;;;;;13.10;6.70;;;;;;;7.43;49.73;101443.32;106411;1299;21963;-64
2023/01/07 05:46:23;;;;;;;9.40;4.70;;;;;;;7.41;49.35;101454.98;106556;1296;21997;-60
2023/01/07 05:48:49;;;;;;;6.90;4.30;;;;;;;7.40;49.44;101464.91;106657;1298;21995;-61
2023/01/07 05:51:15;;;;;;;7.40;4.30;;;;;;;7.41;49.61;101469.13;106589;1299;22003;-59
2023/01/07 05:53:40;;;;;;;7.90;4.30;;;;;;;7.42;49.44;101471.08;106566;1299;21955;-62
2023/01/07 05:56:07;;;;;;;7.80;4.10;;;;;;;7.42;49.38;101471.77;106546;1294;21955;-60
2023/01/07 05:58:34;;;;;;;8.10;4.20;;;;;;;7.43;49.51;101475.46;106570;1289;21992;-60
2023/01/07 06:01:00;;;;;;;7.00;4.20;;;;;;;7.46;49.63;101477.07;106565;1298;21952;-65
2023/01/07 06:03:25;;;;;;;8.50;4.80;;;;;;;7.48;49.67;101483.41;106595;1299;21968;-61
2023/01/07 06:05:55;;;;;;;7.10;4.50;;;;;;;7.51;49.66;101488.86;106518;1299;22018;-66
2023/01/07 06:08:21;;;;;;;8.30;4.30;;;;;;;7.54;49.67;101495.03;106547;1299;21991;-61
2023/01/07 06:10:46;;;;;;;7.20;4.00;;;;;;;7.56;49.68;101500.83;106493;1298;21949;-61
2023/01/07 06:13:12;;;;;;;7.50;3.70;;;;;;;7.55;49.65;101504.64;106427;1299;21954;-62
2023/01/07 06:15:37;;;;;;;5.40;3.90;;;;;;;7.57;49.73;101505.21;106447;1299;22004;-61
2023/01/07 06:18:03;;;;;;;7.70;4.30;;;;;;;7.58;49.68;101506.80;106455;1295;21961;-63
2023/01/07 06:20:33;;;;;;;10.70;8.10;;;;;;;7.60;49.65;101506.32;105712;1299;1002407;-65
2023/01/07 06:23:01;;;;;;;9.70;5.10;;;;;;;7.63;49.77;101500.95;106493;1298;21951;-61
2023/01/07 06:25:28;;;;;;;7.20;4.70;;;;;;;7.74;50.36;101506.73;106558;1299;21956;-67
2023/01/07 06:27:56;;;;;;;8.10;4.20;;;;;;;7.86;50.11;101513.92;106542;1299;21993;-67
2023/01/07 06:30:22;;;;;;;7.20;4.20;;;;;;;7.94;50.18;101513.54;106581;1299;21966;-60
2023/01/07 06:32:48;;;;;;;7.40;4.50;;;;;;;7.98;50.16;101515.18;106618;1298;21999;-68
2023/01/07 06:35:14;;;;;;;7.70;3.70;;;;;;;8.06;50.17;101517.40;106604;1299;22000;-67
2023/01/07 06:37:39;;;;;;;6.10;3.70;;;;;;;8.13;50.09;101522.06;106521;1290;22002;-60
2023/01/07 06:40:06;;;;;;;5.90;3.90;;;;;;;8.20;50.15;101522.35;106551;1298;21998;-68
2023/01/07 06:42:32;;;;;;;6.80;3.70;;;;;;;8.28;50.42;101518.45;106582;1298;22550;-67
2023/01/07 06:44:57;;;;;;;5.80;4.00;;;;;;;8.36;50.48;101517.52;106479;1298;21954;-67
2023/01/07 06:47:24;;;;;;;6.30;3.80;;;;;;;8.42;50.35;101522.34;106539;1299;22003;-67
2023/01/07 06:49:51;;;;;;;6.60;4.20;;;;;;;8.46;50.18;101522.58;106551;1299;21961;-60
2023/01/07 06:52:16;;;;;;;6.20;3.60;;;;;;;8.50;50.17;101523.89;106674;1299;21991;-60
2023/01/07 06:54:42;;;;;;;6.30;3.50;;;;;;;8.53;50.12;101523.23;106644;1299;21972;-67
2023/01/07 06:57:10;;;;;;;5.50;3.90;;;;;;;8.57;50.15;101521.02;106575;1299;21950;-60
2023/01/07 06:59:35;;;;;;;6.20;3.90;;;;;;;8.59;50.39;101519.30;106676;1299;21963;-67
2023/01/07 07:02:01;;;;;;;6.00;3.40;;;;;;;8.65;50.44;101520.23;106781;1295;21993;-60
2023/01/07 07:04:26;;;;;;;7.30;3.90;;;;;;;8.71;50.54;101514.73;106553;1299;21959;-68
2023/01/07 07:06:52;;;;;;;9.60;4.60;;;;;;;8.78;50.59;101509.75;106497;1299;21951;-59
2023/01/07 07:09:18;;;;;;;8.80;5.40;;;;;;;8.87;50.53;101510.92;106548;1298;21962;-68
2023/01/07 07:11:44;;;;;;;11.60;5.20;;;;;;;8.94;50.47;101512.06;106443;1299;21924;-66
2023/01/07 07:14:10;;;;;;;9.60;5.60;;;;;;;8.96;50.21;101515.94;106480;1297;21982;-68
2023/01/07 07:16:36;;;;;;;8.80;5.40;;;;;;;8.98;50.04;101520.86;106567;1299;21962;-62
2023/01/07 07:19:02;;;;;;;8.60;5.70;;;;;;;9.00;50.00;101520.01;106482;1299;21971;-67
2023/01/07 07:21:27;;;;;;;6.90;4.40;;;;;;;9.03;50.12;101519.52;106476;1299;21983;-61
2023/01/07 07:23:53;;;;;;;7.50;4.00;;;;;;;9.02;49.85;101519.33;106600;1299;21938;-61
2023/01/07 07:26:18;;;;;;;5.90;3.80;;;;;;;9.00;49.77;101521.76;106644;1299;21953;-61
2023/01/07 07:28:44;;;;;;;6.90;4.40;;;;;;;8.97;49.68;101527.84;106487;1299;21967;-68
2023/01/07 07:31:10;;;;;;;8.00;5.40;;;;;;;8.97;49.78;101528.73;106492;1299;21964;-68
2023/01/07 07:33:37;;;;;;;7.60;5.20;;;;;;;9.01;49.94;101528.08;106542;1291;21964;-68
2023/01/07 07:36:03;;;;;;;7.30;4.60;;;;;;;9.07;50.18;101528.49;106500;1291;21956;-68
2023/01/07 07:38:29;;;;;;;7.90;5.30;;;;;;;9.16;50.41;101532.27;106590;1297;21965;-62
2023/01/07 07:40:56;;;;;;;6.00;4.80;;;;;;;9.24;50.49;101535.17;106626;1299;23963;-61
2023/01/07 07:43:22;;;;;;;7.10;4.70;;;;;;;9.31;50.56;101537.35;106526;1296;21952;-61
2023/01/07 07:45:47;;;;;;;9.00;4.40;;;;;;;9.39;50.49;101537.80;106593;1299;22219;-60
2023/01/07 07:48:16;;;;;;;6.50;3.80;;;;;;;9.48;50.48;101538.41;106735;1295;22500;-64
2023/01/07 07:50:42;;;;;;;5.40;4.00;;;;;;;9.52;50.06;101536.89;106650;1299;21951;-67
2023/01/07 07:53:09;;;;;;;6.90;4.40;;;;;;;9.52;49.94;101540.02;106813;1300;21964;-67
2023/01/07 07:55:39;;;;;;;7.00;4.40;;;;;;;9.51;49.69;101544.40;106847;1300;21955;-61
2023/01/07 07:58:05;;;;;;;6.90;4.50;;;;;;;9.48;49.59;101544.55;106556;1290;21951;-61
2023/01/07 08:00:31;;;;;;;8.10;3.90;;;;;;;9.50;49.91;101547.03;106721;1299;21946;-61
2023/01/07 08:02:57;;;;;;;7.10;4.10;;;;;;;9.52;49.91;101548.80;106833;1295;21955;-62
2023/01/07 08:05:25;;;;;;;5.90;4.60;;;;;;;9.57;50.02;101555.15;106785;1290;21951;-61
2023/01/07 08:07:51;;;;;;;7.20;3.70;;;;;;;9.64;50.23;101553.30;106647;1299;21953;-61
2023/01/07 08:10:19;;;;;;;6.00;3.70;;;;;;;9.75;50.37;101548.67;106777;1290;21948;-61
2023/01/07 08:12:45;;;;;;;6.40;3.70;;;;;;;9.81;49.99;101546.98;106868;1300;21954;-62
2023/01/07 08:15:11;;;;;;;5.30;3.80;;;;;;;9.81;49.87;101545.60;106761;1298;21962;-61
2023/01/07 08:17:37;;;;;;;5.20;3.60;;;;;;;9.81;49.85;101549.10;106600;1291;21964;-61
2023/01/07 08:20:04;;;;;;;5.00;2.90;;;;;;;9.83;49.82;101550.16;106782;1300;21958;-61
2023/01/07 08:22:33;;;;;;;;;;;;;;;9.81;49.39;101554.00;106756;1300;21937;-61
2023/01/07 08:25:00;;;;;;;5.10;3.30;;;;;;;9.70;48.76;101553.38;106669;1299;21955;-61
2023/01/07 08:27:26;;;;;;;4.40;3.20;;;;;;;9.55;48.63;101552.16;106388;1291;21964;-61
2023/01/07 08:29:53;;;;;;;7.10;3.60;;;;;;;9.48;49.00;101549.30;106457;1286;22005;-61
2023/01/07 08:32:19;;;;;;;4.90;3.10;;;;;;;9.49;49.13;101553.50;106445;1299;21955;-61
2023/01/07 08:34:44;;;;;;;4.60;2.90;;;;;;;9.47;49.13;101559.79;106428;1299;22949;-61
2023/01/07 08:37:10;;;;;;;6.20;3.60;;;;;;;9.53;49.67;101561.95;106407;1292;21946;-61
2023/01/07 08:39:39;;;;;;;6.60;3.40;;;;;;;9.59;49.37;101560.09;106735;1300;22826;-61
2023/01/07 08:42:05;;;;;;;6.80;3.90;;;;;;;9.62;49.27;101557.84;106725;1300;21957;-60
2023/01/07 08:44:31;;;;;;;5.40;3.40;;;;;;;9.61;48.97;101556.42;106595;1299;21957;-62
2023/01/07 08:46:56;;;;;;;5.90;3.70;;;;;;;9.62;49.22;101558.02;106033;1300;1002507;-61
2023/01/07 08:49:22;;;;;;;5.70;3.80;;;;;;;9.73;49.04;101557.42;106479;1294;22029;-61
2023/01/07 08:51:49;;;;;;;4.70;3.30;;;;;;;9.75;49.12;101559.20;106547;1299;21962;-67
2023/01/07 08:54:15;;;;;;;5.50;3.70;;;;;;;9.76;48.79;101560.77;106652;1300;21980;-65
2023/01/07 08:56:41;;;;;;;19.50;10.60;;;;;;;9.75;48.33;101557.27;106548;1299;24408;-60
2023/01/07 08:59:08;;;;;;;14.10;8.30;;;;;;;9.56;48.19;101558.13;106487;1294;21935;-66
2023/01/07 09:01:34;;;;;;;11.90;7.10;;;;;;;9.46;48.58;101555.21;106463;1299;23177;-60
2023/01/07 09:04:00;;;;;;;9.50;5.90;;;;;;;9.44;48.78;101551.17;106518;1296;22416;-66
2023/01/07 09:06:26;;;;;;;8.30;5.70;;;;;;;9.45;48.64;101548.55;106571;1299;21957;-60
2023/01/07 09:08:51;;;;;;;7.90;5.10;;;;;;;9.46;48.62;101546.98;106333;1299;21951;-60
2023/01/07 09:11:17;;;;;;;10.80;5.80;;;;;;;9.52;48.58;101542.85;106357;1299;22283;-61
2023/01/07 09:13:43;;;;;;;9.50;6.00;;;;;;;9.54;48.44;101546.02;108480;1299;21940;-67
2023/01/07 09:16:08;;;;;;;10.70;6.50;;;;;;;9.53;48.29;101542.15;106932;1299;23611;-60
2023/01/07 09:18:34;;;;;;;10.00;6.30;;;;;;;9.48;48.59;101539.66;106335;1299;21962;-60
2023/01/07 09:21:00;;;;;;;13.10;7.40;;;;;;;9.44;48.47;101538.91;106328;1297;21953;-60
2023/01/07 09:23:26;;;;;;;29.10;12.90;;;;;;;9.36;48.62;101532.15;106398;1299;21959;-66
2023/01/07 09:25:51;;;;;;;56.70;22.60;;;;;;;9.39;48.57;101528.35;106467;1299;22079;-67
2023/01/07 09:28:17;;;;;;;48.60;20.30;;;;;;;9.36;48.64;101523.58;106348;1291;21998;-66
2023/01/07 09:30:42;;;;;;;20.70;10.20;;;;;;;9.36;48.83;101520.26;106447;1296;21972;-60
2023/01/07 09:33:08;;;;;;;28.90;13.80;;;;;;;9.38;48.77;101523.60;106399;1297;21958;-61
2023/01/07 09:35:34;;;;;;;18.70;9.70;;;;;;;9.39;48.85;101524.65;106433;1297;21967;-60
2023/01/07 09:38:00;;;;;;;15.10;7.40;;;;;;;9.40;48.92;101526.42;106324;1299;22005;-60
2023/01/07 09:40:29;;;;;;;9.40;5.90;;;;;;;9.38;48.78;101528.33;106354;1299;22002;-60
2023/01/07 09:43:00;;;;;;;10.50;7.30;;;;;;;9.37;48.70;101525.17;106437;1299;21978;-61
2023/01/07 09:45:28;;;;;;;11.10;6.30;;;;;;;9.43;49.03;101526.11;106430;1299;24391;-60
2023/01/07 09:47:56;;;;;;;11.90;7.10;;;;;;;9.50;49.19;101529.67;106406;1286;21989;-66
2023/01/07 09:50:22;;;;;;;13.70;7.90;;;;;;;9.58;49.23;101523.81;106676;1293;22001;-67
2023/01/07 09:52:50;;;;;;;12.10;7.10;;;;;;;9.60;49.06;101521.90;106595;1299;21965;-67
2023/01/07 09:55:18;;;;;;;12.10;7.10;;;;;;;9.63;49.17;101519.30;106601;1297;21959;-66
2023/01/07 09:57:44;;;;;;;13.30;8.40;;;;;;;9.71;49.58;101516.75;106490;1291;23821;-66
2023/01/07 10:00:15;;;;;;;11.30;7.30;;;;;;;9.81;49.44;101516.15;106482;1299;21960;-66
2023/01/07 10:03:16;;;;;;;9.10;6.50;;;;;;;9.85;49.26;101517.23;106534;1298;21956;-67
2023/01/07 10:06:02;;;;;;;11.70;6.10;;;;;;;9.84;49.19;101519.15;106534;1298;21961;-66
2023/01/07 10:08:54;;;;;;;11.20;5.70;;;;;;;9.89;49.23;101519.71;106333;1299;24364;-67
2023/01/07 10:11:26;;;;;;;9.20;5.70;;;;;;;9.91;49.22;101519.05;106512;1298;21965;-60
2023/01/07 10:14:18;;;;;;;10.20;6.70;;;;;;;9.92;49.14;101519.92;106524;1299;23634;-66
2023/01/07 10:16:56;;;;;;;9.50;6.60;;;;;;;9.99;49.48;101514.18;105795;1299;1003076;-60
2023/01/07 10:19:34;;;;;;;8.70;6.20;;;;;;;10.01;49.91;101507.37;106502;1298;21958;-66
2023/01/07 10:22:02;;;;;;;9.60;6.80;;;;;;;10.12;50.16;101506.57;106499;1290;22128;-60
2023/01/07 10:24:31;;;;;;;10.60;6.70;;;;;;;10.12;50.37;101507.63;106559;1299;21977;-60
2023/01/07 10:27:06;;;;;;;11.30;7.10;;;;;;;10.26;50.30;101510.54;106558;1299;21960;-61
2023/01/07 10:29:36;;;;;;;10.10;6.50;;;;;;;10.32;50.37;101504.27;106536;1299;21964;-66
2023/01/07 10:32:07;;;;;;;13.10;6.10;;;;;;;10.45;50.31;101495.59;106619;1299;23692;-66
2023/01/07 10:34:36;;;;;;;9.00;5.60;;;;;;;10.56;50.17;101490.23;106598;1299;21955;-66
2023/01/07 10:37:06;;;;;;;9.60;5.60;;;;;;;10.64;50.12;101484.48;106586;1299;21954;-66
2023/01/07 10:39:40;;;;;;;8.00;5.40;;;;;;;10.72;49.92;101486.63;106464;1298;21967;-66
2023/01/07 10:42:30;;;;;;;7.40;4.70;;;;;;;10.67;49.94;101484.14;106544;1299;21961;-60
2023/01/07 10:45:15;;;;;;;8.50;5.20;;;;;;;10.71;49.64;101476.45;106451;1299;21956;-65
2023/01/07 10:48:17;;;;;;;7.50;5.30;;;;;;;10.75;49.64;101474.71;106453;1299;21951;-66
2023/01/07 10:51:02;;;;;;;7.20;4.80;;;;;;;10.71;49.74;101472.59;105780;1300;1002799;-66
2023/01/07 10:53:49;;;;;;;7.90;5.20;;;;;;;10.56;50.14;101473.39;106378;1289;21960;-66
2023/01/07 10:56:22;;;;;;;8.30;5.10;;;;;;;10.69;49.87;101472.05;106484;1299;21955;-66
2023/01/07 10:58:48;;;;;;;8.00;4.50;;;;;;;10.59;50.10;101473.57;106423;1297;21963;-66
2023/01/07 11:01:24;;;;;;;8.80;4.80;;;;;;;10.58;50.06;101472.51;106500;1299;23736;-60
2023/01/07 11:03:51;;;;;;;9.70;4.80;;;;;;;10.72;49.90;101468.19;105823;1300;1002640;-65
2023/01/07 11:06:17;;;;;;;7.70;5.40;;;;;;;10.75;49.65;101461.55;106535;1299;21958;-60
2023/01/07 11:08:43;;;;;;;9.50;5.20;;;;;;;10.76;49.45;101459.44;106538;1286;22148;-66
2023/01/07 11:11:14;;;;;;;7.20;4.70;;;;;;;10.77;49.45;101458.22;106541;1299;21966;-65
2023/01/07 11:13:40;;;;;;;8.40;5.30;;;;;;;10.72;49.34;101453.45;106525;1299;21962;-65
2023/01/07 11:16:10;;;;;;;6.90;4.80;;;;;;;10.64;49.47;101456.04;106176;1301;21956;-65
2023/01/07 11:18:49;;;;;;;9.30;4.60;;;;;;;10.62;49.56;101453.75;106518;1299;21976;-61
2023/01/07 11:21:34;;;;;;;7.90;4.90;;;;;;;10.63;49.53;101448.14;106546;1299;22008;-60
2023/01/07 11:24:00;;;;;;;7.60;4.50;;;;;;;10.62;49.51;101440.95;106437;1299;23151;-60
2023/01/07 11:26:29;;;;;;;11.20;5.20;;;;;;;10.63;49.54;101437.61;106209;1300;23721;-60
2023/01/07 11:28:56;;;;;;;7.80;5.10;;;;;;;10.64;49.53;101442.88;106508;1291;21957;-66
2023/01/07 11:31:41;;;;;;;8.10;4.70;;;;;;;10.63;49.39;101442.16;106495;1294;22048;-66
2023/01/07 11:34:21;;;;;;;9.10;5.80;;;;;;;10.61;49.41;101443.21;105848;1296;1002649;-60
2023/01/07 11:36:47;;;;;;;8.10;5.60;;;;;;;10.59;49.29;101443.92;106604;1298;21969;-65